Terminal Aerodrome Forecast
Issued by NWS

Home | Current Version | Previous Version | Text Only | Print | Product List | Glossary On
Versions: 1 2 3 4 5 6 7 8 9 10 11 12
000
FTUS46 KSTO 290500
TAFSMF
TAF
KSMF 290522Z 2906/3006 16009KT P6SM FEW150 BKN200
     FM291400 VRB05KT P6SM BKN200
     FM292200 21007KT P6SM FEW250
     FM300100 18011KT P6SM SCT200=

USA.gov is the U.S. government's official web portal to all federal, state and local government web resources and services.